createdAt,value
2022-10-16T00:00:24.589Z,97957.84
2022-10-16T00:02:51.367Z,97961.81
2022-10-16T00:05:17.846Z,97963.16
2022-10-16T00:07:44.313Z,97957.50
2022-10-16T00:10:10.788Z,97963.38
2022-10-16T00:12:37.293Z,97966.56
2022-10-16T00:15:03.976Z,97974.28
2022-10-16T00:17:30.805Z,97973.22
2022-10-16T00:19:57.760Z,97971.34
2022-10-16T00:22:24.514Z,97984.41
2022-10-16T00:24:51.390Z,97971.03
2022-10-16T00:27:17.903Z,97968.38
2022-10-16T00:29:44.383Z,97978.28
2022-10-16T00:32:10.841Z,97973.47
2022-10-16T00:34:37.378Z,97981.81
2022-10-16T00:37:03.895Z,97978.59
2022-10-16T00:39:30.358Z,97983.72
2022-10-16T00:41:56.824Z,97981.63
2022-10-16T00:44:43.255Z,97985.13
2022-10-16T00:47:20.712Z,97978.50
2022-10-16T00:49:47.683Z,97978.28
2022-10-16T00:52:14.188Z,97982.28
2022-10-16T00:54:40.672Z,97988.22
2022-10-16T00:57:07.505Z,97973.53
2022-10-16T00:59:39.405Z,97973.03
2022-10-16T01:02:07.028Z,97969.84
2022-10-16T01:04:38.966Z,97970.13
2022-10-16T01:07:36.399Z,97966.13
2022-10-16T01:10:08.857Z,97973.34
2022-10-16T01:12:38.816Z,97970.16
2022-10-16T01:15:08.699Z,97972.31
2022-10-16T01:17:38.642Z,97973.94
2022-10-16T01:20:19.625Z,97973.94
2022-10-16T01:23:08.185Z,97984.63
2022-10-16T01:25:49.125Z,97984.31
2022-10-16T01:28:15.619Z,97981.94
2022-10-16T01:30:43.192Z,97984.03
2022-10-16T01:33:15.660Z,97989.91
2022-10-16T01:35:48.173Z,97983.19
2022-10-16T01:38:21.739Z,97981.84
2022-10-16T01:40:51.558Z,97984.97
2022-10-16T01:43:29.878Z,97990.53
2022-10-16T01:45:56.348Z,97983.88
2022-10-16T01:48:23.832Z,97999.66
2022-10-16T01:50:57.000Z,98004.47
2022-10-16T01:53:23.465Z,98004.47
2022-10-16T01:55:50.004Z,98014.88
2022-10-16T01:58:16.675Z,98015.69
2022-10-16T02:00:45.538Z,98017.56
2022-10-16T02:03:12.355Z,98013.25
2022-10-16T02:05:42.079Z,98012.47
2022-10-16T02:08:08.533Z,98017.03
2022-10-16T02:10:36.033Z,98016.53
2022-10-16T02:13:18.374Z,98026.69
2022-10-16T02:15:45.126Z,98030.44
2022-10-16T02:18:11.633Z,98025.38
2022-10-16T02:20:43.935Z,98021.38
2022-10-16T02:23:11.862Z,98018.22
2022-10-16T02:25:39.037Z,98013.72
2022-10-16T02:28:09.620Z,98016.66
2022-10-16T02:30:37.456Z,98009.72
2022-10-16T02:33:04.749Z,98012.69
2022-10-16T02:35:31.203Z,98018.31
2022-10-16T02:37:57.784Z,98021.25
2022-10-16T02:40:25.440Z,98015.09
2022-10-16T02:42:53.087Z,98021.53
2022-10-16T02:45:19.793Z,98021.81
2022-10-16T02:47:46.326Z,98019.16
2022-10-16T02:50:12.787Z,98003.38
2022-10-16T02:52:39.527Z,98012.22
2022-10-16T02:55:06.237Z,98006.88
2022-10-16T02:57:32.921Z,98011.41
2022-10-16T02:59:59.488Z,98014.88
2022-10-16T03:02:26.110Z,98007.94
2022-10-16T03:04:52.569Z,98013.81
2022-10-16T03:07:19.029Z,98011.63
2022-10-16T03:09:45.495Z,98007.34
2022-10-16T03:12:13.042Z,97993.94
2022-10-16T03:14:40.799Z,97994.47
2022-10-16T03:17:07.409Z,98000.06
2022-10-16T03:19:33.864Z,98009.41
2022-10-16T03:22:00.315Z,98005.69
2022-10-16T03:24:26.777Z,98002.72
2022-10-16T03:26:53.231Z,98012.34
2022-10-16T03:29:19.683Z,98027.56
2022-10-16T03:31:46.211Z,98030.78
2022-10-16T03:34:12.730Z,98026.78
2022-10-16T03:36:39.199Z,98032.91
2022-10-16T03:39:05.659Z,98034.00
2022-10-16T03:41:32.123Z,98027.06
2022-10-16T03:43:58.584Z,98020.13
2022-10-16T03:46:25.063Z,98016.94
2022-10-16T03:48:51.507Z,98019.34
2022-10-16T03:51:17.982Z,98021.78
2022-10-16T03:53:44.453Z,98018.56
2022-10-16T03:56:10.951Z,98028.47
2022-10-16T03:58:37.408Z,98031.41
2022-10-16T04:01:03.918Z,98032.50
2022-10-16T04:03:30.420Z,98045.06
2022-10-16T04:05:56.876Z,98043.72
2022-10-16T04:08:23.332Z,98040.28
2022-10-16T04:10:49.828Z,98055.78
2022-10-16T04:13:16.366Z,98046.44
2022-10-16T04:15:42.892Z,98043.28
2022-10-16T04:18:09.416Z,98038.53
2022-10-16T04:20:36.048Z,98038.56
2022-10-16T04:23:02.593Z,98035.69
2022-10-16T04:25:29.107Z,98029.19
2022-10-16T04:30:22.700Z,98039.72
2022-10-16T04:32:51.050Z,98042.66
2022-10-16T04:35:20.957Z,98036.19
2022-10-16T04:37:47.538Z,98031.91
2022-10-16T04:40:14.301Z,98041.25
2022-10-16T04:42:41.658Z,98043.34
2022-10-16T04:45:11.998Z,98051.88
2022-10-16T04:47:41.256Z,98055.63
2022-10-16T04:50:08.090Z,98064.69
2022-10-16T04:55:03.670Z,98069.53
2022-10-16T04:57:30.345Z,98067.66
2022-10-16T04:59:56.892Z,98069.53
2022-10-16T05:02:23.410Z,98068.47
2022-10-16T05:04:49.894Z,98061.31
2022-10-16T05:07:16.462Z,98064.22
2022-10-16T05:09:42.951Z,98077.03
2022-10-16T05:12:09.492Z,98070.06
2022-10-16T05:14:35.981Z,98088.47
2022-10-16T05:17:02.476Z,98084.72
2022-10-16T05:19:29.153Z,98088.69
2022-10-16T05:21:55.947Z,98086.56
2022-10-16T05:24:22.425Z,98086.00
2022-10-16T05:26:48.925Z,98090.78
2022-10-16T05:29:15.511Z,98087.56
2022-10-16T05:31:42.015Z,98087.25
2022-10-16T05:34:08.489Z,98080.03
2022-10-16T05:36:34.969Z,98081.09
2022-10-16T05:39:01.421Z,98088.56
2022-10-16T05:41:27.929Z,98103.22
2022-10-16T05:43:54.452Z,98104.28
2022-10-16T05:46:20.965Z,98110.97
2022-10-16T05:48:47.485Z,98100.53
2022-10-16T05:51:14.491Z,98097.88
2022-10-16T05:53:41.474Z,98105.63
2022-10-16T05:56:08.305Z,98104.84
2022-10-16T05:58:36.614Z,98105.66
2022-10-16T06:01:08.115Z,98109.69
2022-10-16T06:03:34.962Z,98121.19
2022-10-16T06:06:17.491Z,98119.34
2022-10-16T06:08:44.506Z,98126.84
2022-10-16T06:11:12.871Z,98126.06
2022-10-16T06:13:40.537Z,98133.03
2022-10-16T06:16:07.506Z,98139.72
2022-10-16T06:18:34.013Z,98134.63
2022-10-16T06:21:00.552Z,98132.78
2022-10-16T06:23:27.071Z,98140.78
2022-10-16T06:25:53.541Z,98148.81
2022-10-16T06:28:20.071Z,98151.47
2022-10-16T06:30:46.911Z,98147.22
2022-10-16T06:33:13.476Z,98155.97
2022-10-16T06:35:40.003Z,98166.13
2022-10-16T06:38:06.484Z,98167.19
2022-10-16T06:40:32.967Z,98165.56
2022-10-16T06:42:59.420Z,98170.91
2022-10-16T06:45:25.934Z,98166.63
2022-10-16T06:47:52.401Z,98175.97
2022-10-16T06:50:18.880Z,98174.69
2022-10-16T06:52:45.334Z,98172.81
2022-10-16T06:55:11.786Z,98194.44
2022-10-16T06:57:38.254Z,98191.00
2022-10-16T07:00:05.346Z,98194.72
2022-10-16T07:02:31.808Z,98186.44
2022-10-16T07:04:58.282Z,98198.44
2022-10-16T07:07:27.462Z,98195.81
2022-10-16T07:09:54.338Z,98196.91
2022-10-16T07:12:20.815Z,98204.63
2022-10-16T07:14:47.334Z,98219.59
2022-10-16T07:17:13.795Z,98218.78
2022-10-16T07:19:40.249Z,98222.81
2022-10-16T07:22:07.476Z,98219.06
2022-10-16T07:24:33.990Z,98231.66
2022-10-16T07:27:00.499Z,98233.50
2022-10-16T07:29:27.042Z,98236.16
2022-10-16T07:31:53.558Z,98240.16
2022-10-16T07:34:20.769Z,98239.63
2022-10-16T07:36:49.550Z,98243.06
2022-10-16T07:39:16.047Z,98258.28
2022-10-16T07:41:42.522Z,98256.41
2022-10-16T07:44:09.436Z,98263.06
2022-10-16T07:46:36.894Z,98253.72
2022-10-16T07:49:04.214Z,98268.47
2022-10-16T07:51:30.923Z,98264.22
2022-10-16T07:53:57.460Z,98278.41
2022-10-16T07:56:23.975Z,98277.34
2022-10-16T07:58:51.200Z,98293.34
2022-10-16T08:01:17.897Z,98292.28
2022-10-16T08:03:48.186Z,98298.13
2022-10-16T08:06:14.664Z,98301.06
2022-10-16T08:11:07.500Z,98307.75
2022-10-16T08:16:00.261Z,98309.88
2022-10-16T08:18:26.794Z,98309.31
2022-10-16T08:20:57.808Z,98312.25
2022-10-16T08:23:24.332Z,98319.16
2022-10-16T08:25:50.856Z,98312.75
2022-10-16T08:28:17.701Z,98311.97
2022-10-16T08:30:44.260Z,98303.41
2022-10-16T08:33:10.770Z,98310.09
2022-10-16T08:35:37.238Z,98306.34
2022-10-16T08:38:13.412Z,98318.09
2022-10-16T08:40:39.880Z,98321.03
2022-10-16T08:43:24.467Z,98318.91
2022-10-16T08:46:15.899Z,98328.25
2022-10-16T08:48:50.463Z,98330.66
2022-10-16T08:51:38.017Z,98325.56
2022-10-16T08:54:18.875Z,98317.00
2022-10-16T08:56:45.356Z,98332.75
2022-10-16T08:59:12.160Z,98340.53
2022-10-16T09:01:41.233Z,98353.34
2022-10-16T09:04:25.919Z,98348.28
2022-10-16T09:07:20.386Z,98355.44
2022-10-16T09:10:08.571Z,98349.78
2022-10-16T09:12:45.995Z,98349.78
2022-10-16T09:15:18.871Z,98355.41
2022-10-16T09:18:03.646Z,98366.63
2022-10-16T09:21:07.659Z,98358.59
2022-10-16T09:23:37.925Z,98374.09
2022-10-16T09:26:04.875Z,98372.78
2022-10-16T09:28:31.437Z,98365.81
2022-10-16T09:30:57.979Z,98371.66
2022-10-16T09:33:26.948Z,98381.28
2022-10-16T09:35:54.672Z,98374.66
2022-10-16T09:38:30.903Z,98381.56
2022-10-16T09:41:03.845Z,98388.81
2022-10-16T09:43:55.438Z,98386.19
2022-10-16T09:46:35.569Z,98388.56
2022-10-16T09:49:06.379Z,98379.75
2022-10-16T09:51:36.790Z,98400.31
2022-10-16T09:54:08.965Z,98390.91
2022-10-16T09:56:42.728Z,98392.75
2022-10-16T09:59:18.591Z,98376.94
2022-10-16T10:01:54.571Z,98399.94
2022-10-16T10:04:21.471Z,98390.25
2022-10-16T10:06:51.926Z,98406.31
2022-10-16T10:09:25.126Z,98397.75
2022-10-16T10:11:55.482Z,98405.28
2022-10-16T10:14:21.865Z,98415.72
2022-10-16T10:16:48.474Z,98411.72
2022-10-16T10:19:19.215Z,98413.91
2022-10-16T10:21:45.819Z,98410.19
2022-10-16T10:24:13.761Z,98415.28
2022-10-16T10:26:41.726Z,98417.16
2022-10-16T10:29:16.689Z,98418.72
2022-10-16T10:31:50.989Z,98420.81
2022-10-16T10:34:58.135Z,98422.09
2022-10-16T10:37:32.408Z,98416.75
2022-10-16T10:40:14.470Z,98439.44
2022-10-16T10:42:49.913Z,98434.63
2022-10-16T10:45:46.608Z,98422.31
2022-10-16T10:49:11.322Z,98422.31
2022-10-16T10:52:02.888Z,98421.72
2022-10-16T10:54:48.043Z,98421.19
2022-10-16T10:57:20.694Z,98430.28
2022-10-16T11:00:11.568Z,98423.84
2022-10-16T11:02:58.397Z,98425.44
2022-10-16T11:05:50.948Z,98423.78
2022-10-16T11:08:19.834Z,98421.63
2022-10-16T11:10:52.145Z,98427.31
2022-10-16T11:13:49.864Z,98428.72
2022-10-16T11:16:26.562Z,98431.44
2022-10-16T11:19:19.753Z,98429.56
2022-10-16T11:21:52.274Z,98435.72
2022-10-16T11:24:24.726Z,98437.56
2022-10-16T11:26:51.266Z,98442.91
2022-10-16T11:29:28.455Z,98441.03
2022-10-16T11:31:59.116Z,98453.34
2022-10-16T11:34:44.372Z,98439.13
2022-10-16T11:37:13.400Z,98438.84
2022-10-16T11:39:40.314Z,98441.84
2022-10-16T11:42:11.358Z,98442.13
2022-10-16T11:45:01.962Z,98450.69
2022-10-16T11:50:40.807Z,98439.22
2022-10-16T11:53:31.880Z,98435.22
2022-10-16T11:55:58.347Z,98448.06
2022-10-16T11:58:35.278Z,98447.00
2022-10-16T12:01:10.775Z,98452.34
2022-10-16T12:03:55.328Z,98451.31
2022-10-16T12:06:45.005Z,98451.84
2022-10-16T12:09:20.053Z,98457.72
2022-10-16T12:11:46.631Z,98444.38
2022-10-16T12:14:13.133Z,98452.16
2022-10-16T12:17:22.880Z,98446.22
2022-10-16T12:20:00.437Z,98454.22
2022-10-16T12:22:29.025Z,98453.97
2022-10-16T12:24:55.803Z,98455.59
2022-10-16T12:27:30.312Z,98457.44
2022-10-16T12:30:04.263Z,98465.78
2022-10-16T12:32:46.228Z,98473.25
2022-10-16T12:35:27.303Z,98469.22
2022-10-16T12:37:53.818Z,98472.44
2022-10-16T12:40:29.443Z,98471.63
2022-10-16T12:42:55.927Z,98470.56
2022-10-16T12:45:34.849Z,98474.34
2022-10-16T12:48:02.484Z,98483.41
2022-10-16T12:50:32.228Z,98482.84
2022-10-16T12:52:59.302Z,98490.06
2022-10-16T12:55:25.839Z,98486.59
2022-10-16T12:58:04.428Z,98485.78
2022-10-16T13:00:51.690Z,98490.06
2022-10-16T13:03:42.006Z,98490.06
2022-10-16T13:06:27.292Z,98485.81
2022-10-16T13:09:05.854Z,98497.44
2022-10-16T13:12:10.156Z,98514.34
2022-10-16T13:15:14.337Z,98516.84
2022-10-16T13:18:20.707Z,98520.09
2022-10-16T13:21:23.515Z,98516.03
2022-10-16T13:23:58.538Z,98517.31
2022-10-16T13:26:41.209Z,98532.84
2022-10-16T13:29:08.093Z,98533.91
2022-10-16T13:31:35.425Z,98535.50
2022-10-16T13:34:01.917Z,98545.28
2022-10-16T13:36:48.252Z,98543.66
2022-10-16T13:39:25.608Z,98541.31
2022-10-16T13:42:04.814Z,98541.28
2022-10-16T13:44:54.979Z,98536.47
2022-10-16T13:47:23.801Z,98531.97
2022-10-16T13:50:16.536Z,98536.47
2022-10-16T13:52:43.054Z,98539.13
2022-10-16T13:55:17.426Z,98536.69
2022-10-16T13:57:44.066Z,98540.84
2022-10-16T14:00:24.646Z,98548.50
2022-10-16T14:02:59.918Z,98552.09
2022-10-16T14:05:26.538Z,98554.63
2022-10-16T14:07:53.024Z,98557.25
2022-10-16T14:10:25.399Z,98556.88
2022-10-16T14:12:56.687Z,98563.09
2022-10-16T14:15:23.193Z,98561.34
2022-10-16T14:17:51.271Z,98554.50
2022-10-16T14:20:17.724Z,98556.44
2022-10-16T14:22:44.295Z,98561.78
2022-10-16T14:25:19.957Z,98557.78
2022-10-16T14:27:46.511Z,98552.72
2022-10-16T14:30:20.956Z,98563.41
2022-10-16T14:32:57.437Z,98566.09
2022-10-16T14:35:33.000Z,98567.69
2022-10-16T14:38:00.270Z,98568.50
2022-10-16T14:40:31.502Z,98567.69
2022-10-16T14:42:58.252Z,98566.09
2022-10-16T14:45:27.204Z,98569.81
2022-10-16T14:47:55.472Z,98567.94
2022-10-16T14:50:22.192Z,98569.03
2022-10-16T14:52:48.760Z,98570.88
2022-10-16T14:55:15.420Z,98568.75
2022-10-16T14:57:41.990Z,98565.28
2022-10-16T15:00:26.695Z,98569.28
2022-10-16T15:02:53.275Z,98567.66
2022-10-16T15:05:20.604Z,98572.19
2022-10-16T15:07:47.300Z,98568.75
2022-10-16T15:10:14.615Z,98568.75
2022-10-16T15:12:41.384Z,98570.88
2022-10-16T15:15:29.324Z,98563.94
2022-10-16T15:18:01.502Z,98575.41
2022-10-16T15:20:28.969Z,98567.94
2022-10-16T15:22:55.505Z,98576.44
2022-10-16T15:25:32.914Z,98585.50
2022-10-16T15:28:00.454Z,98590.84
2022-10-16T15:30:26.927Z,98593.25
2022-10-16T15:32:53.409Z,98592.72
2022-10-16T15:35:19.924Z,98590.84
2022-10-16T15:37:48.304Z,98588.47
2022-10-16T15:40:15.021Z,98597.53
2022-10-16T15:42:41.483Z,98591.66
2022-10-16T15:45:08.532Z,98594.88
2022-10-16T15:47:35.064Z,98594.59
2022-10-16T15:50:01.538Z,98596.47
2022-10-16T15:52:29.714Z,98602.31
2022-10-16T15:54:56.627Z,98603.41
2022-10-16T15:57:25.946Z,98603.97
2022-10-16T15:59:52.419Z,98606.38
2022-10-16T16:02:19.516Z,98607.44
2022-10-16T16:04:46.312Z,98617.84
2022-10-16T16:07:15.969Z,98616.25
2022-10-16T16:09:42.602Z,98609.06
2022-10-16T16:12:09.079Z,98613.88
2022-10-16T16:14:35.558Z,98626.16
2022-10-16T16:17:05.965Z,98612.53
2022-10-16T16:19:33.253Z,98605.88
2022-10-16T16:22:00.086Z,98594.91
2022-10-16T16:24:26.575Z,98593.03
2022-10-16T16:26:55.243Z,98591.44
2022-10-16T16:29:22.071Z,98609.56
2022-10-16T16:31:48.549Z,98625.88
2022-10-16T16:34:15.477Z,98620.56
2022-10-16T16:36:42.002Z,98616.84
2022-10-16T16:39:08.663Z,98630.44
2022-10-16T16:41:35.899Z,98633.13
2022-10-16T16:44:04.438Z,98629.38
2022-10-16T16:46:32.139Z,98631.00
2022-10-16T16:49:00.594Z,98624.03
2022-10-16T16:51:30.673Z,98627.53
2022-10-16T16:53:57.507Z,98617.09
2022-10-16T16:56:27.329Z,98628.34
2022-10-16T16:58:55.530Z,98649.13
2022-10-16T17:01:23.005Z,98655.56
2022-10-16T17:03:53.586Z,98656.91
2022-10-16T17:06:27.080Z,98656.38
2022-10-16T17:08:54.200Z,98660.13
2022-10-16T17:11:22.418Z,98671.63
2022-10-16T17:13:54.024Z,98666.28
2022-10-16T17:16:40.974Z,98664.97
2022-10-16T17:19:08.228Z,98669.50
2022-10-16T17:21:37.982Z,98666.03
2022-10-16T17:24:05.988Z,98678.81
2022-10-16T17:26:34.301Z,98678.28
2022-10-16T17:29:01.903Z,98674.00
2022-10-16T17:31:30.448Z,98675.94
2022-10-16T17:33:59.229Z,98674.31
2022-10-16T17:36:35.082Z,98676.50
2022-10-16T17:39:07.074Z,98687.41
2022-10-16T17:41:34.405Z,98681.00
2022-10-16T17:44:00.916Z,98676.44
2022-10-16T17:46:29.628Z,98672.19
2022-10-16T17:48:57.576Z,98676.75
2022-10-16T17:51:25.891Z,98685.31
2022-10-16T17:53:55.019Z,98686.69
2022-10-16T17:56:23.916Z,98683.50
2022-10-16T17:58:52.934Z,98681.09
2022-10-16T18:01:24.887Z,98688.31
2022-10-16T18:03:59.837Z,98689.66
2022-10-16T18:06:34.050Z,98699.25
2022-10-16T18:09:01.055Z,98699.00
2022-10-16T18:11:28.068Z,98704.63
2022-10-16T18:13:55.838Z,98707.84
2022-10-16T18:16:22.621Z,98700.06
2022-10-16T18:18:49.749Z,98699.28
2022-10-16T18:21:17.795Z,98703.03
2022-10-16T18:23:49.065Z,98691.53
2022-10-16T18:26:18.744Z,98673.34
2022-10-16T18:28:45.410Z,98690.97
2022-10-16T18:31:20.737Z,98706.75
2022-10-16T18:33:51.504Z,98702.72
2022-10-16T18:36:23.591Z,98716.66
2022-10-16T18:38:51.785Z,98720.91
2022-10-16T18:41:18.655Z,98723.31
2022-10-16T18:43:45.403Z,98721.72
2022-10-16T18:46:13.553Z,98729.22
2022-10-16T18:48:41.664Z,98726.81
2022-10-16T18:51:23.369Z,98734.59
2022-10-16T18:53:54.241Z,98731.34
2022-10-16T18:56:23.571Z,98723.63
2022-10-16T18:58:50.406Z,98732.19
2022-10-16T19:01:21.043Z,98725.78
2022-10-16T19:03:48.300Z,98726.59
2022-10-16T19:06:15.699Z,98732.44
2022-10-16T19:08:42.495Z,98732.22
2022-10-16T19:11:20.326Z,98730.34
2022-10-16T19:13:48.580Z,98729.78
2022-10-16T19:16:20.920Z,98723.91
2022-10-16T19:18:48.974Z,98719.34
2022-10-16T19:21:15.786Z,98734.59
2022-10-16T19:23:44.432Z,98726.31
2022-10-16T19:26:12.576Z,98716.16
2022-10-16T19:28:39.385Z,98715.88
2022-10-16T19:31:11.572Z,98726.59
2022-10-16T19:33:39.786Z,98727.38
2022-10-16T19:36:13.063Z,98724.44
2022-10-16T19:38:40.308Z,98742.06
2022-10-16T19:41:13.605Z,98727.66
2022-10-16T19:43:40.227Z,98732.44
2022-10-16T19:46:13.064Z,98722.59
2022-10-16T19:48:41.455Z,98725.25
2022-10-16T19:51:18.592Z,98731.41
2022-10-16T19:53:46.504Z,98724.72
2022-10-16T19:56:17.015Z,98723.38
2022-10-16T19:58:43.746Z,98724.72
2022-10-16T20:01:13.568Z,98707.06
2022-10-16T20:03:43.087Z,98723.91
2022-10-16T20:06:09.917Z,98727.38
2022-10-16T20:08:37.699Z,98729.53
2022-10-16T20:11:04.535Z,98742.91
2022-10-16T20:13:31.184Z,98740.47
2022-10-16T20:15:59.387Z,98745.56
2022-10-16T20:18:26.253Z,98754.09
2022-10-16T20:20:52.794Z,98746.59
2022-10-16T20:23:19.410Z,98745.81
2022-10-16T20:25:46.087Z,98749.81
2022-10-16T20:28:14.093Z,98747.16
2022-10-16T20:30:43.145Z,98739.94
2022-10-16T20:33:09.945Z,98743.09
2022-10-16T20:35:37.891Z,98743.63
2022-10-16T20:38:04.365Z,98739.88
2022-10-16T20:40:31.093Z,98754.06
2022-10-16T20:42:58.637Z,98751.13
2022-10-16T20:45:25.552Z,98755.38
2022-10-16T20:47:52.011Z,98764.47
2022-10-16T20:50:19.918Z,98777.81
2022-10-16T20:52:46.385Z,98789.59
2022-10-16T20:55:13.301Z,98800.78
2022-10-16T20:57:40.118Z,98802.66
2022-10-16T21:00:07.185Z,98795.72
2022-10-16T21:02:34.102Z,98815.47
2022-10-16T21:05:00.785Z,98831.66
2022-10-16T21:07:28.662Z,98822.09
2022-10-16T21:09:57.638Z,98808.19
2022-10-16T21:12:26.230Z,98807.97
2022-10-16T21:15:13.289Z,98800.72
2022-10-16T21:17:40.188Z,98792.66
2022-10-16T21:20:07.338Z,98798.00
2022-10-16T21:22:34.909Z,98790.22
2022-10-16T21:25:01.725Z,98799.56
2022-10-16T21:27:28.414Z,98803.81
2022-10-16T21:29:58.965Z,98791.53
2022-10-16T21:32:26.153Z,98801.44
2022-10-16T21:34:53.775Z,98781.91
2022-10-16T21:37:22.764Z,98778.44
2022-10-16T21:39:49.295Z,98779.50
2022-10-16T21:42:16.788Z,98775.50
2022-10-16T21:44:43.466Z,98777.34
2022-10-16T21:47:13.389Z,98769.59
2022-10-16T21:49:40.884Z,98767.19
2022-10-16T21:52:07.750Z,98768.00
2022-10-16T21:54:34.971Z,98771.75
2022-10-16T21:57:01.511Z,98771.75
2022-10-16T21:59:28.406Z,98776.50
2022-10-16T22:01:55.181Z,98774.91
2022-10-16T22:04:23.604Z,98769.84
2022-10-16T22:06:52.462Z,98766.38
2022-10-16T22:09:20.557Z,98774.63
2022-10-16T22:11:49.630Z,98775.69
2022-10-16T22:14:21.180Z,98772.72
2022-10-16T22:16:50.063Z,98774.88
2022-10-16T22:19:20.949Z,98772.47
2022-10-16T22:21:47.634Z,98774.31
2022-10-16T22:24:20.280Z,98767.38
2022-10-16T22:26:48.582Z,98775.38
2022-10-16T22:29:17.363Z,98782.03
2022-10-16T22:31:44.199Z,98779.38
2022-10-16T22:34:13.898Z,98782.28
2022-10-16T22:36:43.645Z,98768.38
2022-10-16T22:39:10.712Z,98774.81
2022-10-16T22:41:40.259Z,98771.34
2022-10-16T22:44:11.861Z,98764.38
2022-10-16T22:46:39.422Z,98753.16
2022-10-16T22:49:06.296Z,98758.22
2022-10-16T22:51:32.767Z,98757.16
2022-10-16T22:53:59.295Z,98753.97
2022-10-16T22:56:27.398Z,98763.03
2022-10-16T22:58:55.717Z,98761.16
2022-10-16T23:01:33.516Z,98764.91
2022-10-16T23:04:01.755Z,98757.41
2022-10-16T23:06:29.604Z,98760.88
2022-10-16T23:08:57.862Z,98752.88
2022-10-16T23:11:24.587Z,98759.28
2022-10-16T23:13:51.750Z,98752.56
2022-10-16T23:16:21.542Z,98752.84
2022-10-16T23:18:49.483Z,98759.25
2022-10-16T23:21:18.824Z,98762.97
2022-10-16T23:23:46.570Z,98764.03
2022-10-16T23:26:14.637Z,98763.22
2022-10-16T23:28:43.956Z,98758.41
2022-10-16T23:31:16.041Z,98761.88
2022-10-16T23:33:43.952Z,98756.78
2022-10-16T23:36:13.016Z,98761.88
2022-10-16T23:38:41.823Z,98766.66
2022-10-16T23:41:11.200Z,98761.31
2022-10-16T23:43:37.685Z,98762.94
2022-10-16T23:46:06.214Z,98767.72
2022-10-16T23:48:34.804Z,98758.66
2022-10-16T23:51:01.292Z,98762.94
2022-10-16T23:53:27.755Z,98767.44
2022-10-16T23:55:54.719Z,98766.66
2022-10-16T23:58:21.284Z,98764.00
